createdAt,value
2022-08-16T00:01:34.261Z,23.60
2022-08-16T00:04:10.410Z,23.59
2022-08-16T00:06:43.985Z,23.57
2022-08-16T00:09:14.447Z,23.54
2022-08-16T00:11:46.620Z,23.53
2022-08-16T00:14:29.258Z,23.50
2022-08-16T00:17:15.860Z,23.45
2022-08-16T00:19:53.794Z,23.43
2022-08-16T00:22:28.321Z,23.43
2022-08-16T00:24:58.439Z,23.41
2022-08-16T00:27:30.796Z,23.40
2022-08-16T00:30:09.258Z,23.38
2022-08-16T00:32:57.061Z,23.37
2022-08-16T00:35:29.600Z,23.36
2022-08-16T00:38:41.350Z,23.33
2022-08-16T00:41:00.087Z,23.27
2022-08-16T00:43:43.368Z,23.23
2022-08-16T00:46:34.969Z,23.19
2022-08-16T00:49:07.160Z,23.14
2022-08-16T00:51:55.263Z,23.08
2022-08-16T00:54:32.938Z,23.08
2022-08-16T00:57:05.204Z,23.08
2022-08-16T00:59:42.467Z,23.08
2022-08-16T01:02:31.930Z,23.08
2022-08-16T01:05:09.547Z,23.07
2022-08-16T01:07:52.118Z,23.06
2022-08-16T01:10:31.939Z,23.06
2022-08-16T01:13:07.994Z,23.05
2022-08-16T01:15:43.047Z,23.02
2022-08-16T01:18:39.829Z,23.01
2022-08-16T01:21:24.414Z,22.98
2022-08-16T01:24:51.688Z,22.93
2022-08-16T01:27:17.646Z,22.90
2022-08-16T01:29:58.352Z,22.89
2022-08-16T01:32:31.468Z,22.86
2022-08-16T01:35:03.872Z,22.86
2022-08-16T01:37:42.624Z,22.85
2022-08-16T01:40:17.562Z,22.85
2022-08-16T01:42:49.660Z,22.86
2022-08-16T01:45:24.345Z,22.85
2022-08-16T01:48:19.431Z,22.84
2022-08-16T01:51:09.080Z,22.84
2022-08-16T01:53:43.692Z,22.82
2022-08-16T01:56:24.919Z,22.80
2022-08-16T01:58:55.782Z,22.79
2022-08-16T02:01:28.139Z,22.76
2022-08-16T02:04:10.749Z,22.75
2022-08-16T02:06:46.188Z,22.74
2022-08-16T02:09:19.404Z,22.73
2022-08-16T02:12:50.626Z,22.73
2022-08-16T02:14:51.143Z,22.69
2022-08-16T02:17:20.940Z,22.67
2022-08-16T02:19:59.286Z,22.68
2022-08-16T02:22:34.181Z,22.66
2022-08-16T02:25:10.428Z,22.65
2022-08-16T02:27:43.897Z,22.62
2022-08-16T02:30:35.733Z,22.62
2022-08-16T02:33:08.536Z,22.59
2022-08-16T02:35:54.074Z,22.58
2022-08-16T02:38:28.518Z,22.57
2022-08-16T02:40:59.170Z,22.58
2022-08-16T02:43:35.499Z,22.58
2022-08-16T02:46:09.876Z,22.59
2022-08-16T02:48:49.388Z,22.59
2022-08-16T02:51:19.281Z,22.58
2022-08-16T02:53:53.239Z,22.59
2022-08-16T02:56:23.650Z,22.60
2022-08-16T02:59:11.610Z,22.58
2022-08-16T03:01:44.392Z,22.58
2022-08-16T03:04:46.472Z,22.59
2022-08-16T03:07:05.008Z,22.59
2022-08-16T03:09:34.751Z,22.58
2022-08-16T03:12:05.615Z,22.58
2022-08-16T03:14:38.229Z,22.58
2022-08-16T03:17:08.006Z,22.57
2022-08-16T03:19:45.815Z,22.58
2022-08-16T03:22:27.951Z,22.56
2022-08-16T03:25:01.651Z,22.56
2022-08-16T03:27:33.027Z,22.56
2022-08-16T03:30:16.432Z,22.55
2022-08-16T03:32:51.407Z,22.53
2022-08-16T03:35:23.120Z,22.52
2022-08-16T03:38:02.782Z,22.52
2022-08-16T03:40:35.627Z,22.50
2022-08-16T03:43:20.581Z,22.47
2022-08-16T03:45:55.362Z,22.45
2022-08-16T03:48:37.088Z,22.41
2022-08-16T03:51:13.617Z,22.39
2022-08-16T03:53:44.848Z,22.36
2022-08-16T03:56:28.087Z,22.34
2022-08-16T03:59:00.486Z,22.31
2022-08-16T04:01:32.980Z,22.28
2022-08-16T04:04:04.013Z,22.25
2022-08-16T04:06:34.324Z,22.22
2022-08-16T04:09:04.104Z,22.20
2022-08-16T04:11:36.932Z,22.17
2022-08-16T04:14:30.731Z,22.15
2022-08-16T04:17:01.700Z,22.12
2022-08-16T04:19:32.504Z,22.10
2022-08-16T04:22:08.532Z,22.07
2022-08-16T04:24:38.665Z,22.06
2022-08-16T04:27:10.797Z,22.02
2022-08-16T04:29:46.417Z,21.99
2022-08-16T04:32:19.857Z,21.98
2022-08-16T04:34:50.074Z,21.95
2022-08-16T04:37:19.987Z,21.93
2022-08-16T04:39:57.029Z,21.91
2022-08-16T04:42:29.660Z,21.89
2022-08-16T04:45:01.980Z,21.86
2022-08-16T04:47:35.936Z,21.85
2022-08-16T04:50:07.863Z,21.83
2022-08-16T04:52:37.981Z,21.81
2022-08-16T04:55:11.915Z,21.79
2022-08-16T04:57:43.050Z,21.81
2022-08-16T05:00:31.734Z,21.91
2022-08-16T05:03:09.144Z,22.08
2022-08-16T05:05:45.142Z,22.21
2022-08-16T05:08:29.870Z,22.37
2022-08-16T05:11:05.201Z,22.57
2022-08-16T05:13:41.073Z,22.75
2022-08-16T05:16:19.722Z,22.95
2022-08-16T05:18:56.879Z,23.15
2022-08-16T05:21:38.588Z,23.35
2022-08-16T05:24:10.259Z,23.53
2022-08-16T05:26:43.517Z,23.69
2022-08-16T05:29:21.230Z,23.81
2022-08-16T05:31:53.186Z,23.77
2022-08-16T05:34:25.918Z,23.67
2022-08-16T05:36:57.518Z,23.56
2022-08-16T05:39:30.104Z,23.50
2022-08-16T05:42:03.275Z,23.53
2022-08-16T05:44:32.972Z,23.67
2022-08-16T05:47:04.868Z,23.86
2022-08-16T05:49:40.262Z,23.91
2022-08-16T05:52:13.533Z,23.88
2022-08-16T05:54:47.663Z,23.84
2022-08-16T05:57:34.491Z,23.90
2022-08-16T06:00:09.405Z,24.04
2022-08-16T06:02:39.751Z,24.19
2022-08-16T06:05:12.871Z,24.39
2022-08-16T06:07:45.680Z,24.57
2022-08-16T06:10:32.941Z,24.75
2022-08-16T06:13:03.676Z,24.94
2022-08-16T06:15:33.494Z,25.08
2022-08-16T06:18:04.967Z,25.23
2022-08-16T06:20:37.465Z,25.38
2022-08-16T06:23:26.487Z,25.50
2022-08-16T06:25:57.191Z,25.61
2022-08-16T06:28:35.949Z,25.72
2022-08-16T06:31:06.856Z,25.83
2022-08-16T06:33:44.760Z,25.92
2022-08-16T06:36:17.628Z,25.97
2022-08-16T06:38:55.316Z,26.02
2022-08-16T06:41:27.454Z,26.05
2022-08-16T06:43:57.884Z,26.03
2022-08-16T06:46:34.186Z,26.07
2022-08-16T06:49:05.271Z,26.10
2022-08-16T06:51:45.982Z,26.14
2022-08-16T06:54:19.167Z,26.18
2022-08-16T06:56:52.540Z,26.22
2022-08-16T06:59:25.701Z,26.26
2022-08-16T07:01:58.332Z,26.31
2022-08-16T07:04:32.690Z,26.39
2022-08-16T07:07:09.909Z,26.49
2022-08-16T07:09:40.555Z,26.58
2022-08-16T07:12:12.058Z,26.67
2022-08-16T07:14:45.207Z,26.75
2022-08-16T07:17:18.416Z,26.80
2022-08-16T07:20:29.201Z,26.83
2022-08-16T07:22:42.641Z,26.87
2022-08-16T07:25:22.847Z,26.89
2022-08-16T07:27:52.654Z,26.92
2022-08-16T07:30:39.925Z,26.96
2022-08-16T07:33:16.195Z,26.98
2022-08-16T07:35:49.781Z,27.00
2022-08-16T07:38:33.764Z,26.97
2022-08-16T07:41:09.430Z,26.94
2022-08-16T07:43:41.607Z,26.95
2022-08-16T07:46:38.652Z,26.97
2022-08-16T07:49:03.753Z,27.03
2022-08-16T07:51:37.036Z,27.11
2022-08-16T07:54:20.585Z,27.15
2022-08-16T07:56:50.734Z,27.23
2022-08-16T07:59:23.967Z,27.30
2022-08-16T08:01:53.930Z,27.34
2022-08-16T08:04:26.706Z,27.42
2022-08-16T08:07:09.003Z,27.48
2022-08-16T08:09:43.518Z,27.51
2022-08-16T08:12:32.241Z,27.53
2022-08-16T08:15:04.155Z,27.63
2022-08-16T08:17:42.903Z,27.73
2022-08-16T08:20:20.760Z,27.84
2022-08-16T08:22:59.969Z,27.93
2022-08-16T08:25:54.350Z,28.00
2022-08-16T08:28:23.617Z,28.06
2022-08-16T08:31:01.508Z,28.09
2022-08-16T08:33:33.922Z,28.17
2022-08-16T08:36:07.346Z,28.24
2022-08-16T08:38:45.236Z,28.29
2022-08-16T08:41:19.739Z,28.34
2022-08-16T08:43:57.286Z,28.39
2022-08-16T08:46:28.422Z,28.46
2022-08-16T08:49:08.824Z,28.54
2022-08-16T08:51:38.952Z,28.64
2022-08-16T08:54:18.605Z,28.71
2022-08-16T08:56:53.240Z,28.79
2022-08-16T08:59:23.679Z,28.88
2022-08-16T09:01:57.587Z,28.97
2022-08-16T09:04:29.007Z,29.00
2022-08-16T09:07:01.125Z,29.03
2022-08-16T09:09:33.719Z,29.03
2022-08-16T09:12:09.108Z,29.02
2022-08-16T09:14:58.826Z,29.00
2022-08-16T09:17:49.202Z,28.97
2022-08-16T09:20:20.009Z,28.96
2022-08-16T09:22:53.150Z,28.96
2022-08-16T09:25:33.867Z,28.99
2022-08-16T09:28:09.360Z,29.07
2022-08-16T09:30:44.078Z,29.09
2022-08-16T09:33:19.980Z,29.14
2022-08-16T09:35:53.346Z,29.21
2022-08-16T09:38:31.891Z,29.28
2022-08-16T09:41:03.455Z,29.32
2022-08-16T09:43:59.293Z,29.35
2022-08-16T09:46:45.991Z,29.39
2022-08-16T09:49:20.075Z,29.43
2022-08-16T09:51:53.676Z,29.44
2022-08-16T09:54:23.742Z,29.43
2022-08-16T09:56:53.955Z,29.46
2022-08-16T09:59:30.609Z,29.47
2022-08-16T10:02:26.471Z,29.41
2022-08-16T10:04:54.790Z,29.38
2022-08-16T10:07:25.458Z,29.37
2022-08-16T10:09:56.497Z,29.31
2022-08-16T10:12:42.428Z,29.28
2022-08-16T10:15:17.040Z,29.29
2022-08-16T10:18:00.620Z,29.31
2022-08-16T10:20:34.974Z,29.32
2022-08-16T10:23:07.112Z,29.33
2022-08-16T10:27:16.985Z,29.33
2022-08-16T10:28:32.548Z,29.31
2022-08-16T10:31:16.947Z,29.33
2022-08-16T10:34:04.091Z,29.33
2022-08-16T10:36:38.902Z,29.36
2022-08-16T10:39:09.936Z,29.39
2022-08-16T10:41:40.066Z,29.42
2022-08-16T10:44:09.979Z,29.45
2022-08-16T10:46:42.500Z,29.48
2022-08-16T10:49:18.106Z,29.53
2022-08-16T10:52:03.481Z,29.54
2022-08-16T10:54:58.564Z,29.56
2022-08-16T10:57:32.761Z,29.63
2022-08-16T11:00:04.876Z,29.71
2022-08-16T11:02:57.606Z,29.76
2022-08-16T11:05:27.249Z,29.74
2022-08-16T11:07:57.375Z,29.72
2022-08-16T11:19:12.543Z,29.84
2022-08-16T11:24:42.710Z,29.92
2022-08-16T11:27:19.732Z,29.97
2022-08-16T11:29:52.847Z,30.02
2022-08-16T11:32:31.889Z,30.00
2022-08-16T11:35:10.393Z,29.94
2022-08-16T11:40:38.877Z,29.74
2022-08-16T11:43:11.081Z,29.71
2022-08-16T11:45:42.418Z,29.78
2022-08-16T11:48:14.139Z,29.86
2022-08-16T11:50:46.996Z,29.94
2022-08-16T11:53:17.351Z,30.00
2022-08-16T11:55:47.174Z,30.09
2022-08-16T11:58:25.654Z,30.18
2022-08-16T12:00:57.596Z,30.26
2022-08-16T12:03:34.668Z,30.31
2022-08-16T12:06:25.181Z,30.29
2022-08-16T12:09:02.135Z,30.26
2022-08-16T12:11:33.183Z,30.26
2022-08-16T12:14:04.277Z,30.29
2022-08-16T12:16:34.859Z,30.34
2022-08-16T12:19:05.771Z,30.37
2022-08-16T12:21:59.342Z,30.41
2022-08-16T12:24:28.618Z,30.41
2022-08-16T12:26:59.916Z,30.43
2022-08-16T12:29:30.622Z,30.44
2022-08-16T12:32:35.891Z,30.43
2022-08-16T12:34:53.075Z,30.39
2022-08-16T12:37:27.536Z,30.36
2022-08-16T12:39:59.240Z,30.36
2022-08-16T12:42:35.555Z,30.39
2022-08-16T12:45:06.815Z,30.41
2022-08-16T12:47:49.225Z,30.45
2022-08-16T12:50:19.178Z,30.47
2022-08-16T12:52:53.544Z,30.48
2022-08-16T12:55:24.298Z,30.45
2022-08-16T12:58:14.231Z,30.37
2022-08-16T13:01:01.843Z,30.31
2022-08-16T13:03:32.464Z,30.26
2022-08-16T13:06:10.370Z,30.26
2022-08-16T13:08:46.496Z,30.27
2022-08-16T13:11:17.790Z,30.26
2022-08-16T13:13:47.646Z,30.23
2022-08-16T13:16:25.095Z,30.20
2022-08-16T13:18:57.111Z,30.18
2022-08-16T13:21:26.926Z,30.19
2022-08-16T13:23:59.406Z,30.17
2022-08-16T13:26:34.130Z,30.15
2022-08-16T13:29:03.836Z,30.12
2022-08-16T13:31:35.559Z,30.13
2022-08-16T13:34:09.295Z,30.12
2022-08-16T13:36:48.475Z,30.07
2022-08-16T13:39:22.655Z,29.98
2022-08-16T13:41:54.523Z,29.92
2022-08-16T13:44:48.670Z,29.86
2022-08-16T13:47:14.315Z,29.80
2022-08-16T13:49:46.505Z,29.76
2022-08-16T13:52:16.499Z,29.76
2022-08-16T13:54:49.181Z,29.76
2022-08-16T13:57:19.614Z,29.72
2022-08-16T13:59:50.417Z,29.69
2022-08-16T14:02:27.406Z,29.68
2022-08-16T14:05:02.969Z,29.64
2022-08-16T14:07:36.380Z,29.66
2022-08-16T14:10:15.631Z,29.68
2022-08-16T14:12:45.472Z,29.68
2022-08-16T14:15:18.630Z,29.69
2022-08-16T14:18:17.337Z,29.72
2022-08-16T14:20:38.069Z,29.75
2022-08-16T14:23:08.538Z,29.75
2022-08-16T14:25:41.289Z,29.77
2022-08-16T14:28:11.263Z,29.76
2022-08-16T14:30:42.550Z,29.72
2022-08-16T14:33:12.322Z,29.68
2022-08-16T14:35:50.107Z,29.66
2022-08-16T14:38:23.501Z,29.64
2022-08-16T14:40:56.668Z,29.62
2022-08-16T14:43:29.546Z,29.60
2022-08-16T14:46:00.804Z,29.55
2022-08-16T14:48:31.625Z,29.54
2022-08-16T14:51:01.601Z,29.52
2022-08-16T14:53:32.790Z,29.51
2022-08-16T14:56:05.380Z,29.54
2022-08-16T14:58:38.092Z,29.55
2022-08-16T15:01:09.894Z,29.53
2022-08-16T15:03:44.482Z,29.48
2022-08-16T15:06:16.242Z,29.42
2022-08-16T15:08:46.592Z,29.40
2022-08-16T15:11:19.098Z,29.39
2022-08-16T15:13:55.081Z,29.38
2022-08-16T15:16:29.098Z,29.33
2022-08-16T15:19:00.233Z,29.28
2022-08-16T15:21:31.119Z,29.23
2022-08-16T15:24:02.126Z,29.21
2022-08-16T15:26:45.249Z,29.20
2022-08-16T15:29:16.869Z,29.20
2022-08-16T15:31:48.252Z,29.19
2022-08-16T15:34:21.971Z,29.20
2022-08-16T15:36:56.067Z,29.19
2022-08-16T15:39:35.708Z,29.19
2022-08-16T15:42:15.708Z,29.18
2022-08-16T15:44:58.566Z,29.16
2022-08-16T15:47:29.195Z,29.16
2022-08-16T15:49:59.288Z,29.11
2022-08-16T15:52:32.902Z,29.07
2022-08-16T15:55:13.145Z,29.00
2022-08-16T15:57:58.530Z,28.94
2022-08-16T16:00:28.361Z,28.87
2022-08-16T16:03:04.351Z,28.83
2022-08-16T16:05:40.076Z,28.77
2022-08-16T16:08:13.503Z,28.68
2022-08-16T16:10:54.363Z,28.61
2022-08-16T16:13:27.185Z,28.58
2022-08-16T16:16:02.946Z,28.59
2022-08-16T16:18:34.421Z,28.57
2022-08-16T16:21:06.602Z,28.53
2022-08-16T16:23:41.234Z,28.45
2022-08-16T16:26:23.831Z,28.35
2022-08-16T16:29:07.736Z,28.25
2022-08-16T16:31:40.865Z,28.16
2022-08-16T16:34:13.762Z,28.08
2022-08-16T16:36:48.329Z,28.00
2022-08-16T16:39:18.437Z,27.96
2022-08-16T16:41:48.173Z,27.94
2022-08-16T16:44:31.744Z,27.91
2022-08-16T16:47:01.702Z,27.82
2022-08-16T16:49:33.935Z,27.77
2022-08-16T16:52:06.618Z,27.68
2022-08-16T16:54:37.854Z,27.62
2022-08-16T16:57:27.625Z,27.60
2022-08-16T16:59:57.756Z,27.58
2022-08-16T17:02:46.115Z,27.53
2022-08-16T17:05:17.914Z,27.47
2022-08-16T17:07:47.917Z,27.44
2022-08-16T17:10:46.872Z,27.41
2022-08-16T17:13:08.338Z,27.32
2022-08-16T17:15:40.680Z,27.27
2022-08-16T17:21:00.700Z,27.18
2022-08-16T17:23:59.089Z,27.18
2022-08-16T17:26:20.212Z,27.13
2022-08-16T17:29:00.034Z,27.09
2022-08-16T17:31:40.858Z,27.03
2022-08-16T17:34:30.437Z,26.97
2022-08-16T17:37:04.941Z,26.92
2022-08-16T17:39:26.514Z,27.23
2022-08-16T17:39:54.871Z,26.85
2022-08-16T17:42:26.147Z,26.80
2022-08-16T17:44:56.135Z,26.77
2022-08-16T17:47:28.542Z,26.71
2022-08-16T17:49:58.964Z,26.67
2022-08-16T17:52:29.354Z,26.65
2022-08-16T17:54:59.035Z,26.64
2022-08-16T17:57:29.249Z,26.63
2022-08-16T17:59:59.229Z,26.61
2022-08-16T18:02:53.023Z,26.60
2022-08-16T18:05:22.023Z,26.53
2022-08-16T18:07:51.737Z,26.46
2022-08-16T18:10:33.260Z,26.39
2022-08-16T18:13:07.758Z,26.33
2022-08-16T18:15:37.658Z,26.30
2022-08-16T18:18:10.304Z,26.29
2022-08-16T18:20:52.613Z,26.24
2022-08-16T18:23:24.028Z,26.18
2022-08-16T18:25:56.241Z,26.16
2022-08-16T18:28:27.228Z,26.16
2022-08-16T18:31:01.235Z,26.16
2022-08-16T18:33:43.819Z,26.16
2022-08-16T18:36:20.608Z,26.15
2022-08-16T18:38:51.456Z,26.14
2022-08-16T18:41:22.321Z,26.13
2022-08-16T18:44:22.946Z,26.12
2022-08-16T18:46:42.868Z,26.07
2022-08-16T18:49:17.995Z,26.04
2022-08-16T18:51:48.254Z,26.04
2022-08-16T18:54:20.887Z,26.02
2022-08-16T18:56:55.849Z,25.97
2022-08-16T18:59:27.138Z,25.93
2022-08-16T19:02:00.108Z,25.89
2022-08-16T19:04:54.978Z,25.85
2022-08-16T19:07:30.957Z,25.78
2022-08-16T19:10:02.395Z,25.73
2022-08-16T19:12:37.804Z,25.72
2022-08-16T19:15:15.802Z,25.71
2022-08-16T19:17:46.219Z,25.67
2022-08-16T19:20:21.033Z,25.65
2022-08-16T19:23:05.889Z,25.61
2022-08-16T19:25:48.623Z,25.53
2022-08-16T19:28:52.087Z,25.47
2022-08-16T19:31:15.831Z,25.42
2022-08-16T19:34:02.648Z,25.35
2022-08-16T19:36:41.112Z,25.23
2022-08-16T19:39:14.475Z,25.15
2022-08-16T19:41:46.679Z,25.07
2022-08-16T19:44:24.056Z,25.04
2022-08-16T19:46:54.412Z,25.01
2022-08-16T19:49:24.132Z,24.95
2022-08-16T19:51:56.497Z,24.90
2022-08-16T19:54:26.281Z,24.85
2022-08-16T19:56:56.006Z,24.82
2022-08-16T19:59:39.585Z,24.82
2022-08-16T20:02:35.903Z,24.80
2022-08-16T20:05:08.461Z,24.74
2022-08-16T20:07:40.858Z,24.74
2022-08-16T20:10:12.386Z,24.70
2022-08-16T20:12:42.795Z,24.66
2022-08-16T20:15:30.680Z,24.59
2022-08-16T20:18:00.929Z,24.51
2022-08-16T20:20:31.295Z,24.38
2022-08-16T20:23:04.231Z,24.25
2022-08-16T20:25:41.130Z,24.18
2022-08-16T20:28:11.404Z,24.11
2022-08-16T20:31:02.151Z,24.11
2022-08-16T20:33:32.220Z,24.10
2022-08-16T20:36:02.039Z,24.13
2022-08-16T20:38:36.917Z,24.17
2022-08-16T20:41:06.784Z,24.16
2022-08-16T20:43:36.530Z,24.17
2022-08-16T20:46:07.029Z,24.17
2022-08-16T20:48:36.936Z,24.16
2022-08-16T20:51:10.580Z,24.13
2022-08-16T20:53:45.002Z,24.11
2022-08-16T20:56:15.189Z,24.06
2022-08-16T20:58:44.976Z,24.00
2022-08-16T21:01:14.796Z,23.98
2022-08-16T21:03:44.566Z,23.96
2022-08-16T21:06:14.362Z,23.98
2022-08-16T21:08:52.637Z,23.98
2022-08-16T21:11:27.658Z,23.98
2022-08-16T21:14:00.577Z,23.98
2022-08-16T21:16:30.643Z,23.93
2022-08-16T21:19:00.558Z,23.87
2022-08-16T21:21:31.974Z,23.80
2022-08-16T21:24:06.383Z,23.74
2022-08-16T21:26:38.950Z,23.72
2022-08-16T21:29:11.342Z,23.69
2022-08-16T21:31:45.987Z,23.65
2022-08-16T21:34:15.718Z,23.59
2022-08-16T21:36:45.441Z,23.54
2022-08-16T21:39:17.786Z,23.50
2022-08-16T21:41:48.335Z,23.42
2022-08-16T21:44:18.059Z,23.37
2022-08-16T21:46:47.821Z,23.37
2022-08-16T21:49:17.570Z,23.36
2022-08-16T21:51:47.451Z,23.35
2022-08-16T21:54:19.748Z,23.32
2022-08-16T21:56:49.460Z,23.26
2022-08-16T21:59:19.301Z,23.21
2022-08-16T22:01:49.075Z,23.18
2022-08-16T22:04:36.532Z,23.14
2022-08-16T22:07:09.519Z,23.11
2022-08-16T22:09:42.308Z,23.10
2022-08-16T22:12:17.479Z,23.10
2022-08-16T22:14:51.285Z,23.11
2022-08-16T22:17:21.115Z,23.13
2022-08-16T22:19:52.138Z,23.14
2022-08-16T22:22:21.899Z,23.18
2022-08-16T22:24:54.495Z,23.21
2022-08-16T22:27:24.213Z,23.22
2022-08-16T22:29:55.768Z,23.21
2022-08-16T22:32:25.488Z,23.20
2022-08-16T22:34:55.964Z,23.17
2022-08-16T22:37:30.597Z,23.14
2022-08-16T22:40:03.041Z,23.15
2022-08-16T22:42:32.893Z,23.17
2022-08-16T22:45:07.910Z,23.14
2022-08-16T22:47:37.653Z,23.10
2022-08-16T22:50:08.211Z,23.05
2022-08-16T22:52:55.635Z,22.98
2022-08-16T22:55:29.590Z,22.93
2022-08-16T22:57:59.832Z,22.92
2022-08-16T23:00:31.692Z,22.93
2022-08-16T23:03:03.137Z,22.96
2022-08-16T23:05:36.101Z,22.98
2022-08-16T23:08:08.300Z,23.02
2022-08-16T23:10:40.701Z,23.06
2022-08-16T23:13:11.148Z,23.10
2022-08-16T23:15:47.512Z,23.13
2022-08-16T23:18:26.809Z,23.15
2022-08-16T23:20:58.810Z,23.17
2022-08-16T23:23:29.203Z,23.19
2022-08-16T23:26:02.361Z,23.19
2022-08-16T23:28:33.687Z,23.18
2022-08-16T23:31:03.492Z,23.18
2022-08-16T23:33:33.272Z,23.18
2022-08-16T23:36:04.262Z,23.20
2022-08-16T23:38:39.453Z,23.19
2022-08-16T23:41:14.398Z,23.15
2022-08-16T23:43:46.228Z,23.10
2022-08-16T23:46:18.170Z,23.04
2022-08-16T23:49:57.381Z,22.98
2022-08-16T23:51:38.120Z,22.94
2022-08-16T23:54:09.869Z,22.93
2022-08-16T23:56:42.194Z,22.96
2022-08-16T23:59:11.935Z,22.97
